createdAt,value
2017-08-05T00:00:42.725Z,71.10
2017-08-05T00:03:11.687Z,71.50
2017-08-05T00:05:40.648Z,70.80
2017-08-05T00:08:09.591Z,70.80
2017-08-05T00:10:38.540Z,71.20
2017-08-05T00:13:07.518Z,71.00
2017-08-05T00:15:36.542Z,70.50
2017-08-05T00:18:05.486Z,71.20
2017-08-05T00:20:34.500Z,70.70
2017-08-05T00:23:03.452Z,71.90
2017-08-05T00:25:32.421Z,71.10
2017-08-05T00:28:01.373Z,71.30
2017-08-05T00:30:30.344Z,70.70
2017-08-05T00:32:59.284Z,71.40
2017-08-05T00:35:28.286Z,71.40
2017-08-05T00:37:57.228Z,71.60
2017-08-05T00:40:26.218Z,71.50
2017-08-05T00:42:55.165Z,71.90
2017-08-05T00:45:24.157Z,72.50
2017-08-05T00:47:53.247Z,73.20
2017-08-05T01:07:25.643Z,72.00
2017-08-05T01:09:54.609Z,72.20
2017-08-05T01:12:23.562Z,71.60
2017-08-05T01:14:52.530Z,71.40
2017-08-05T01:17:21.506Z,71.60
2017-08-05T01:19:50.448Z,71.90
2017-08-05T01:22:19.439Z,71.60
2017-08-05T01:24:48.393Z,71.40
2017-08-05T01:27:17.341Z,71.50
2017-08-05T01:29:46.307Z,71.20
2017-08-05T01:32:15.256Z,71.60
2017-08-05T01:34:44.225Z,71.60
2017-08-05T01:37:13.187Z,71.50
2017-08-05T01:39:42.161Z,71.30
2017-08-05T01:42:11.134Z,71.40
2017-08-05T01:44:40.088Z,70.70
2017-08-05T01:47:09.044Z,71.40
2017-08-05T01:49:38.006Z,70.60
2017-08-05T01:52:06.968Z,70.80
2017-08-05T01:54:35.958Z,71.20
2017-08-05T01:57:04.975Z,71.40
2017-08-05T01:59:34.746Z,72.00
2017-08-05T02:02:03.718Z,71.00
2017-08-05T02:04:32.670Z,71.10
2017-08-05T02:07:01.633Z,71.70
2017-08-05T02:09:30.606Z,72.10
2017-08-05T02:11:59.540Z,72.40
2017-08-05T02:14:28.493Z,72.10
2017-08-05T02:16:57.480Z,71.90
2017-08-05T02:19:26.438Z,72.00
2017-08-05T02:21:55.384Z,72.50
2017-08-05T02:24:24.358Z,72.80
2017-08-05T02:26:53.295Z,73.30
2017-08-05T02:29:22.272Z,72.70
2017-08-05T02:31:51.210Z,72.80
2017-08-05T02:34:20.220Z,73.00
2017-08-05T02:36:49.168Z,73.20
2017-08-05T02:39:18.146Z,73.30
2017-08-05T02:41:47.117Z,73.50
2017-08-05T02:44:16.068Z,72.90
2017-08-05T02:46:45.041Z,73.30
2017-08-05T02:49:14.006Z,73.70
2017-08-05T02:51:42.952Z,73.90
2017-08-05T02:54:11.916Z,73.30
2017-08-05T02:56:40.867Z,73.10
2017-08-05T02:59:09.843Z,73.60
2017-08-05T03:01:38.798Z,73.20
2017-08-05T03:04:07.753Z,73.50
2017-08-05T03:06:36.730Z,73.90
2017-08-05T03:09:06.652Z,74.30
2017-08-05T03:11:35.633Z,74.70
2017-08-05T03:14:04.578Z,74.70
2017-08-05T03:16:33.622Z,75.00
2017-08-05T03:19:02.657Z,75.00
2017-08-05T03:21:31.618Z,74.60
2017-08-05T03:24:00.596Z,74.90
2017-08-05T03:26:29.535Z,74.40
2017-08-05T03:28:58.535Z,74.80
2017-08-05T03:31:27.497Z,75.00
2017-08-05T03:33:56.431Z,74.50
2017-08-05T03:36:25.435Z,74.80
2017-08-05T03:38:54.405Z,74.70
2017-08-05T03:41:23.356Z,74.10
2017-08-05T03:43:52.353Z,74.10
2017-08-05T03:46:21.291Z,74.30
2017-08-05T03:48:50.267Z,74.10
2017-08-05T03:51:19.254Z,74.50
2017-08-05T03:53:48.238Z,74.80
2017-08-05T03:56:17.192Z,73.90
2017-08-05T03:58:46.198Z,74.50
2017-08-05T04:01:15.191Z,75.40
2017-08-05T04:03:44.138Z,75.00
2017-08-05T04:06:13.099Z,74.60
2017-08-05T04:08:42.069Z,75.10
2017-08-05T04:11:11.032Z,75.50
2017-08-05T04:13:39.987Z,75.50
2017-08-05T04:16:08.964Z,76.40
2017-08-05T04:18:37.908Z,76.10
2017-08-05T04:21:06.879Z,75.40
2017-08-05T04:23:35.848Z,75.90
2017-08-05T04:26:04.884Z,75.40
2017-08-05T04:28:33.844Z,75.70
2017-08-05T04:31:02.836Z,75.70
2017-08-05T04:33:31.781Z,75.60
2017-08-05T04:36:00.752Z,75.40
2017-08-05T04:38:29.696Z,75.40
2017-08-05T04:40:58.667Z,75.30
2017-08-05T04:43:27.604Z,76.20
2017-08-05T04:45:56.585Z,76.20
2017-08-05T04:48:25.529Z,75.60
2017-08-05T04:50:54.513Z,75.80
2017-08-05T04:53:23.456Z,75.40
2017-08-05T04:55:52.442Z,75.20
2017-08-05T04:58:21.460Z,75.60
2017-08-05T05:00:50.392Z,75.90
2017-08-05T05:03:19.985Z,75.90
2017-08-05T05:05:48.959Z,75.80
2017-08-05T05:08:17.917Z,76.30
2017-08-05T05:10:46.875Z,76.50
2017-08-05T05:13:15.873Z,76.00
2017-08-05T05:15:44.864Z,75.80
2017-08-05T05:18:13.836Z,75.80
2017-08-05T05:20:42.832Z,74.70
2017-08-05T05:23:11.788Z,74.20
2017-08-05T05:25:40.727Z,74.20
2017-08-05T05:28:09.716Z,73.90
2017-08-05T05:30:38.720Z,74.20
2017-08-05T05:33:07.663Z,74.60
2017-08-05T05:35:36.648Z,74.20
2017-08-05T05:38:05.623Z,73.80
2017-08-05T05:40:41.529Z,73.80
2017-08-05T05:43:10.512Z,74.30
2017-08-05T05:45:39.461Z,74.50
2017-08-05T05:48:08.659Z,75.70
2017-08-05T05:50:37.623Z,75.40
2017-08-05T05:53:06.580Z,74.90
2017-08-05T05:55:35.537Z,74.70
2017-08-05T05:58:04.514Z,75.20
2017-08-05T06:00:33.468Z,75.00
2017-08-05T06:03:02.454Z,74.80
2017-08-05T06:05:31.439Z,75.10
2017-08-05T06:08:00.383Z,74.50
2017-08-05T06:10:29.359Z,74.30
2017-08-05T06:12:58.372Z,75.40
2017-08-05T06:15:27.353Z,74.10
2017-08-05T06:17:56.383Z,74.80
2017-08-05T06:20:25.346Z,75.20
2017-08-05T06:22:54.348Z,74.10
2017-08-05T06:25:24.096Z,75.40
2017-08-05T06:27:53.096Z,74.50
2017-08-05T06:30:22.084Z,74.10
2017-08-05T06:32:51.046Z,73.70
2017-08-05T06:35:20.069Z,73.80
2017-08-05T06:37:49.118Z,74.30
2017-08-05T06:40:19.787Z,74.50
2017-08-05T06:42:49.252Z,74.90
2017-08-05T06:45:18.293Z,74.90
2017-08-05T06:47:47.650Z,74.90
2017-08-05T06:50:17.010Z,75.20
2017-08-05T06:52:45.991Z,74.40
2017-08-05T06:55:15.024Z,73.80
2017-08-05T06:57:44.773Z,74.30
2017-08-05T07:00:14.996Z,73.70
2017-08-05T07:02:43.959Z,73.50
2017-08-05T07:05:13.022Z,73.60
2017-08-05T07:07:41.998Z,73.50
2017-08-05T07:10:11.128Z,72.70
2017-08-05T07:12:40.117Z,72.40
2017-08-05T07:15:09.061Z,72.70
2017-08-05T07:17:38.049Z,72.00
2017-08-05T07:20:07.023Z,71.30
2017-08-05T07:22:36.660Z,72.20
2017-08-05T07:25:05.704Z,72.80
2017-08-05T07:27:34.704Z,72.20
2017-08-05T07:30:03.641Z,73.30
2017-08-05T07:32:32.629Z,72.80
2017-08-05T07:35:01.590Z,72.80
2017-08-05T07:37:30.551Z,72.80
2017-08-05T07:39:59.516Z,72.20
2017-08-05T07:42:28.483Z,72.50
2017-08-05T07:44:57.454Z,72.10
2017-08-05T07:47:27.286Z,72.70
2017-08-05T07:49:56.254Z,73.80
2017-08-05T07:52:25.206Z,74.60
2017-08-05T07:54:54.170Z,73.60
2017-08-05T07:57:23.109Z,73.00
2017-08-05T07:59:52.124Z,73.70
2017-08-05T08:02:21.063Z,73.80
2017-08-05T08:04:49.990Z,71.90
2017-08-05T08:07:18.973Z,71.70
2017-08-05T08:09:47.946Z,72.60
2017-08-05T08:12:16.965Z,70.80
2017-08-05T08:14:45.985Z,70.60
2017-08-05T08:17:14.962Z,71.00
2017-08-05T08:19:43.951Z,70.10
2017-08-05T08:22:12.884Z,70.00
2017-08-05T08:24:41.878Z,71.40
2017-08-05T08:27:10.831Z,70.00
2017-08-05T08:29:39.780Z,70.60
2017-08-05T08:32:08.763Z,70.90
2017-08-05T08:34:37.733Z,70.60
2017-08-05T08:37:06.670Z,70.30
2017-08-05T08:39:35.649Z,70.70
2017-08-05T08:42:04.719Z,69.90
2017-08-05T08:44:33.692Z,70.30
2017-08-05T08:47:02.645Z,69.20
2017-08-05T08:49:31.619Z,69.30
2017-08-05T08:52:00.998Z,69.30
2017-08-05T08:54:29.975Z,69.50
2017-08-05T08:56:58.935Z,70.70
2017-08-05T08:59:27.898Z,70.10
2017-08-05T09:01:56.860Z,69.10
2017-08-05T09:04:25.847Z,69.40
2017-08-05T09:06:54.803Z,67.70
2017-08-05T09:09:23.786Z,67.60
2017-08-05T09:11:52.725Z,67.70
2017-08-05T09:14:21.734Z,67.60
2017-08-05T09:16:50.740Z,67.20
2017-08-05T09:19:19.690Z,68.30
2017-08-05T09:21:48.745Z,67.50
2017-08-05T09:24:17.679Z,67.40
2017-08-05T09:26:46.673Z,68.00
2017-08-05T09:29:15.630Z,67.90
2017-08-05T09:31:44.621Z,67.90
2017-08-05T09:34:13.566Z,67.40
2017-08-05T09:36:42.546Z,68.30
2017-08-05T09:39:11.517Z,67.80
2017-08-05T09:41:40.487Z,66.50
2017-08-05T09:44:09.437Z,66.60
2017-08-05T09:46:38.502Z,66.30
2017-08-05T10:02:11.362Z,67.10
2017-08-05T10:04:40.303Z,62.60
2017-08-05T10:07:09.260Z,61.40
2017-08-05T10:09:38.256Z,61.60
2017-08-05T10:12:07.230Z,62.60
2017-08-05T10:14:36.165Z,63.60
2017-08-05T10:17:05.154Z,63.60
2017-08-05T10:19:34.137Z,62.00
2017-08-05T10:22:03.123Z,62.90
2017-08-05T10:24:32.846Z,61.50
2017-08-05T10:27:02.283Z,60.20
2017-08-05T10:29:32.180Z,60.60
2017-08-05T10:32:02.470Z,61.20
2017-08-05T10:34:31.432Z,61.90
2017-08-05T10:39:35.187Z,60.80
2017-08-05T10:42:10.359Z,60.60
2017-08-05T10:44:46.011Z,58.80
2017-08-05T10:47:16.171Z,57.80
2017-08-05T10:49:45.152Z,59.20
2017-08-05T10:52:14.368Z,56.80
2017-08-05T10:54:44.282Z,57.30
2017-08-05T10:57:15.315Z,55.80
2017-08-05T10:59:44.662Z,56.60
2017-08-05T11:02:13.643Z,57.40
2017-08-05T11:04:42.570Z,56.80
2017-08-05T11:07:11.547Z,57.50
2017-08-05T11:09:41.891Z,55.50
2017-08-05T11:12:14.179Z,55.30
2017-08-05T11:14:43.864Z,52.20
2017-08-05T11:17:12.893Z,50.90
2017-08-05T11:19:42.338Z,50.00
2017-08-05T11:22:12.310Z,49.00
2017-08-05T11:24:41.791Z,51.10
2017-08-05T11:27:10.758Z,51.90
2017-08-05T11:29:39.739Z,49.40
2017-08-05T11:32:08.675Z,52.60
2017-08-05T11:34:37.673Z,53.30
2017-08-05T11:37:06.636Z,53.30
2017-08-05T11:39:35.625Z,55.10
2017-08-05T11:42:04.589Z,55.30
2017-08-05T11:44:33.546Z,54.90
2017-08-05T11:47:12.421Z,56.00
2017-08-05T11:49:41.376Z,57.50
2017-08-05T11:52:10.319Z,57.70
2017-08-05T11:54:39.305Z,57.90
2017-08-05T11:57:08.275Z,59.40
2017-08-05T11:59:37.229Z,59.50
2017-08-05T12:02:12.269Z,59.90
2017-08-05T12:04:41.210Z,63.00
2017-08-05T12:07:10.204Z,69.60
2017-08-05T12:09:39.708Z,75.80
2017-08-05T12:12:09.396Z,75.90
2017-08-05T12:14:38.303Z,80.60
2017-08-05T12:17:07.259Z,84.40
2017-08-05T12:19:36.243Z,84.80
2017-08-05T12:22:05.224Z,85.00
2017-08-05T12:24:34.187Z,85.10
2017-08-05T12:27:03.949Z,84.50
2017-08-05T12:29:45.321Z,85.00
2017-08-05T12:32:14.365Z,82.00
2017-08-05T12:34:43.320Z,80.10
2017-08-05T12:37:29.422Z,79.90
2017-08-05T12:39:58.402Z,76.30
2017-08-05T12:42:27.409Z,79.10
2017-08-05T12:45:08.868Z,76.80
2017-08-05T12:47:37.838Z,73.50
2017-08-05T12:50:19.120Z,75.60
2017-08-05T12:52:48.077Z,70.90
2017-08-05T12:55:29.484Z,59.50
2017-08-05T12:57:58.499Z,61.50
2017-08-05T13:00:27.470Z,57.60
2017-08-05T13:03:09.673Z,55.10
2017-08-05T13:05:38.747Z,57.10
2017-08-05T13:08:07.704Z,57.90
2017-08-05T13:10:36.675Z,54.10
2017-08-05T13:13:05.622Z,50.90
2017-08-05T13:15:34.588Z,52.90
2017-08-05T13:18:03.565Z,55.10
2017-08-05T13:20:32.558Z,56.20
2017-08-05T13:23:17.305Z,58.00
2017-08-05T13:28:48.362Z,59.30
2017-08-05T13:31:30.531Z,58.60
2017-08-05T13:34:00.244Z,59.10
2017-08-05T13:36:41.824Z,59.00
2017-08-05T13:39:23.564Z,59.30
2017-08-05T13:44:41.700Z,54.00
2017-08-05T13:47:10.690Z,50.00
2017-08-05T13:49:39.680Z,52.80
2017-08-05T13:55:21.358Z,49.10
2017-08-05T13:57:50.401Z,49.70
2017-08-05T14:00:19.365Z,49.50
2017-08-05T14:03:11.585Z,47.50
2017-08-05T14:06:01.142Z,47.00
2017-08-05T14:11:08.838Z,46.60
2017-08-05T14:13:39.553Z,46.30
2017-08-05T14:16:08.880Z,43.10
2017-08-05T14:18:37.877Z,44.00
2017-08-05T14:21:06.835Z,45.00
2017-08-05T14:23:43.482Z,47.20
2017-08-05T14:26:24.835Z,49.00
2017-08-05T14:31:40.990Z,49.60
2017-08-05T14:34:10.131Z,49.10
2017-08-05T14:36:39.104Z,45.80
2017-08-05T14:39:08.200Z,47.10
2017-08-05T14:41:37.179Z,47.00
2017-08-05T14:44:06.128Z,45.70
2017-08-05T14:46:35.902Z,45.90
2017-08-05T14:49:04.887Z,45.80
2017-08-05T14:51:50.600Z,49.30
2017-08-05T14:54:19.554Z,46.50
2017-08-05T14:59:43.991Z,44.00
2017-08-05T15:02:14.116Z,42.50
2017-08-05T15:04:45.816Z,44.60
2017-08-05T15:07:14.748Z,45.90
2017-08-05T15:09:43.713Z,45.00
2017-08-05T15:12:12.649Z,46.30
2017-08-05T15:14:42.387Z,47.20
2017-08-05T15:17:11.330Z,47.20
2017-08-05T15:19:40.332Z,48.20
2017-08-05T15:22:09.298Z,47.80
2017-08-05T15:24:38.879Z,47.60
2017-08-05T15:27:07.835Z,49.10
2017-08-05T15:29:37.596Z,47.10
2017-08-05T15:32:06.518Z,47.10
2017-08-05T15:34:35.485Z,48.80
2017-08-05T15:37:04.469Z,47.70
2017-08-05T15:39:33.445Z,48.10
2017-08-05T15:42:02.431Z,49.20
2017-08-05T15:44:31.419Z,47.90
2017-08-05T15:47:00.373Z,47.80
2017-08-05T15:49:29.327Z,48.80
2017-08-05T15:51:58.282Z,50.60
2017-08-05T15:54:28.028Z,50.70
2017-08-05T15:56:57.009Z,50.70
2017-08-05T15:59:27.770Z,49.70
2017-08-05T16:01:56.745Z,49.90
2017-08-05T16:04:25.785Z,50.90
2017-08-05T16:06:56.975Z,50.50
2017-08-05T16:09:25.921Z,51.90
2017-08-05T16:11:54.931Z,50.40
2017-08-05T16:14:24.654Z,50.80
2017-08-05T16:16:53.743Z,50.70
2017-08-05T16:19:22.779Z,51.20
2017-08-05T16:21:51.755Z,50.40
2017-08-05T16:24:20.702Z,51.40
2017-08-05T16:26:49.682Z,50.30
2017-08-05T16:29:19.637Z,51.80
2017-08-05T16:31:48.616Z,50.00
2017-08-05T16:34:17.575Z,50.30
2017-08-05T16:36:46.545Z,49.80
2017-08-05T16:39:15.532Z,50.80
2017-08-05T16:41:44.507Z,51.10
2017-08-05T16:44:21.814Z,50.60
2017-08-05T16:46:50.796Z,49.30
2017-08-05T16:49:20.972Z,49.50
2017-08-05T16:51:49.961Z,50.30
2017-08-05T16:54:18.908Z,50.40
2017-08-05T16:56:47.863Z,52.10
2017-08-05T16:59:16.868Z,51.10
2017-08-05T17:01:45.836Z,51.70
2017-08-05T17:04:14.808Z,52.20
2017-08-05T17:06:43.748Z,51.20
2017-08-05T17:09:12.714Z,51.30
2017-08-05T17:11:41.697Z,53.00
2017-08-05T17:14:10.660Z,51.30
2017-08-05T17:16:39.605Z,51.30
2017-08-05T17:19:08.673Z,52.20
2017-08-05T17:21:37.611Z,51.70
2017-08-05T17:24:06.583Z,52.20
2017-08-05T17:26:35.550Z,52.00
2017-08-05T17:29:04.496Z,52.30
2017-08-05T17:31:33.466Z,51.70
2017-08-05T17:34:02.403Z,51.50
2017-08-05T17:36:31.390Z,50.80
2017-08-05T17:39:00.360Z,52.50
2017-08-05T17:41:29.334Z,52.30
2017-08-05T17:43:58.303Z,52.50
2017-08-05T17:46:27.289Z,51.50
2017-08-05T17:48:56.216Z,51.50
2017-08-05T17:51:25.157Z,51.70
2017-08-05T17:53:54.892Z,51.90
2017-08-05T17:56:23.872Z,52.40
2017-08-05T17:58:53.601Z,52.60
2017-08-05T18:01:22.678Z,52.60
2017-08-05T18:03:51.662Z,53.70
2017-08-05T18:06:21.404Z,52.40
2017-08-05T18:08:50.343Z,52.30
2017-08-05T18:11:19.314Z,52.20
2017-08-05T18:13:48.287Z,52.30
2017-08-05T18:16:17.260Z,51.60
2017-08-05T18:18:46.334Z,52.40
2017-08-05T18:21:16.085Z,50.80
2017-08-05T18:23:45.085Z,50.80
2017-08-05T18:26:14.058Z,51.20
2017-08-05T18:28:43.152Z,52.10
2017-08-05T18:31:12.094Z,52.10
2017-08-05T18:33:41.038Z,52.00
2017-08-05T18:36:10.921Z,52.50
2017-08-05T18:38:40.645Z,52.30
2017-08-05T18:41:09.640Z,52.80
2017-08-05T18:43:39.349Z,53.70
2017-08-05T18:46:08.355Z,53.60
2017-08-05T18:48:37.387Z,53.80
2017-08-05T18:51:06.320Z,54.40
2017-08-05T18:53:35.262Z,54.50
2017-08-05T18:56:04.262Z,54.30
2017-08-05T18:58:33.252Z,55.50
2017-08-05T19:01:02.247Z,55.20
2017-08-05T19:03:31.244Z,55.60
2017-08-05T19:06:00.220Z,56.40
2017-08-05T19:08:29.203Z,57.20
2017-08-05T19:10:58.198Z,57.30
2017-08-05T19:13:27.146Z,57.60
2017-08-05T19:15:56.095Z,58.70
2017-08-05T19:18:25.074Z,59.00
2017-08-05T19:20:54.039Z,58.30
2017-08-05T19:23:23.102Z,58.90
2017-08-05T19:25:52.048Z,59.10
2017-08-05T19:28:21.214Z,59.40
2017-08-05T19:30:50.158Z,60.10
2017-08-05T19:33:19.215Z,59.60
2017-08-05T19:35:48.205Z,61.70
2017-08-05T19:38:17.184Z,60.90
2017-08-05T19:40:46.172Z,63.20
2017-08-05T19:43:15.144Z,61.50
2017-08-05T19:45:44.212Z,61.00
2017-08-05T19:48:14.240Z,59.50
2017-08-05T19:50:43.536Z,59.60
2017-08-05T19:53:13.051Z,59.00
2017-08-05T19:55:42.082Z,59.10
2017-08-05T19:58:11.189Z,58.50
2017-08-05T20:03:34.299Z,58.00
2017-08-05T20:06:03.244Z,58.40
2017-08-05T20:08:32.235Z,57.40
2017-08-05T20:11:02.196Z,57.30
2017-08-05T20:19:29.202Z,58.00
2017-08-05T20:27:39.426Z,58.20
2017-08-05T20:30:08.563Z,58.70
2017-08-05T20:35:22.725Z,58.70
2017-08-05T20:37:52.095Z,59.30
2017-08-05T20:40:27.937Z,59.50
2017-08-05T20:42:56.903Z,58.90
2017-08-05T20:45:25.891Z,59.20
2017-08-05T20:47:56.801Z,59.60
2017-08-05T20:50:25.753Z,59.70
2017-08-05T20:52:55.533Z,59.30
2017-08-05T20:55:24.527Z,59.60
2017-08-05T20:57:53.519Z,60.20
2017-08-05T21:00:22.981Z,59.90
2017-08-05T21:02:51.622Z,61.10
2017-08-05T21:05:20.605Z,61.30
2017-08-05T21:07:49.531Z,62.40
2017-08-05T21:10:18.487Z,61.60
2017-08-05T21:12:47.428Z,62.50
2017-08-05T21:15:16.421Z,62.40
2017-08-05T21:17:45.359Z,63.30
2017-08-05T21:20:14.335Z,63.80
2017-08-05T21:22:43.288Z,63.90
2017-08-05T21:25:12.270Z,63.40
2017-08-05T21:27:41.199Z,64.60
2017-08-05T21:30:10.175Z,64.50
2017-08-05T21:32:39.116Z,64.80
2017-08-05T21:35:08.076Z,64.20
2017-08-05T21:37:38.059Z,64.40
2017-08-05T21:40:07.146Z,64.80
2017-08-05T21:42:36.117Z,64.70
2017-08-05T21:45:05.070Z,65.60
2017-08-05T21:47:34.012Z,65.40
2017-08-05T21:50:02.999Z,66.20
2017-08-05T21:52:31.953Z,65.00
2017-08-05T22:04:15.606Z,66.70
2017-08-05T22:06:44.556Z,67.70
2017-08-05T22:09:13.718Z,67.00
2017-08-05T22:11:42.682Z,67.20
2017-08-05T22:14:11.620Z,67.70
2017-08-05T22:16:45.481Z,67.90
2017-08-05T22:37:21.542Z,68.80
2017-08-05T22:39:50.515Z,68.10
2017-08-05T22:42:19.458Z,69.10
2017-08-05T22:44:48.431Z,68.80
2017-08-05T22:47:17.366Z,69.70
2017-08-05T22:49:46.348Z,69.70
2017-08-05T22:52:15.292Z,69.00
2017-08-05T22:54:44.251Z,68.90
2017-08-05T22:57:13.215Z,69.30
2017-08-05T23:02:36.274Z,68.70
2017-08-05T23:05:05.238Z,68.80
2017-08-05T23:07:34.207Z,69.10
2017-08-05T23:15:51.520Z,70.00
2017-08-05T23:18:20.463Z,70.30
2017-08-05T23:20:49.453Z,70.20
2017-08-05T23:23:18.430Z,70.40
2017-08-05T23:25:47.404Z,70.40
2017-08-05T23:28:16.342Z,70.40
2017-08-05T23:33:38.840Z,70.20
2017-08-05T23:36:07.793Z,70.60
2017-08-05T23:38:36.739Z,70.60
2017-08-05T23:50:00.117Z,70.90
2017-08-05T23:52:29.046Z,71.20
2017-08-05T23:54:58.013Z,71.00
2017-08-05T23:57:26.956Z,71.60
